sensor_id;sensor_type;location;lat;lon;timestamp;temperature;humidity
14093;DHT22;7123;49.468;10.992;2023-05-07T00:01:18;19.50;99.90
14093;DHT22;7123;49.468;10.992;2023-05-07T00:03:45;19.50;99.90
14093;DHT22;7123;49.468;10.992;2023-05-07T00:06:13;19.40;99.90
14093;DHT22;7123;49.468;10.992;2023-05-07T00:08:40;19.40;99.90
14093;DHT22;7123;49.468;10.992;2023-05-07T00:11:07;19.40;99.90
14093;DHT22;7123;49.468;10.992;2023-05-07T00:13:34;19.30;99.90
14093;DHT22;7123;49.468;10.992;2023-05-07T00:16:02;19.30;99.90
14093;DHT22;7123;49.468;10.992;2023-05-07T00:18:29;19.30;99.90
14093;DHT22;7123;49.468;10.992;2023-05-07T00:20:56;19.30;99.90
14093;DHT22;7123;49.468;10.992;2023-05-07T00:23:23;19.20;99.90
14093;DHT22;7123;49.468;10.992;2023-05-07T00:25:50;19.20;99.90
14093;DHT22;7123;49.468;10.992;2023-05-07T00:28:16;19.20;99.90
14093;DHT22;7123;49.468;10.992;2023-05-07T00:30:43;19.20;99.90
14093;DHT22;7123;49.468;10.992;2023-05-07T00:33:10;19.20;99.90
14093;DHT22;7123;49.468;10.992;2023-05-07T00:35:37;19.10;99.90
14093;DHT22;7123;49.468;10.992;2023-05-07T00:38:03;19.10;99.90
14093;DHT22;7123;49.468;10.992;2023-05-07T00:40:30;19.10;99.90
14093;DHT22;7123;49.468;10.992;2023-05-07T00:42:57;19.10;99.90
14093;DHT22;7123;49.468;10.992;2023-05-07T00:45:28;19.10;99.90
14093;DHT22;7123;49.468;10.992;2023-05-07T00:48:00;19.10;99.90
14093;DHT22;7123;49.468;10.992;2023-05-07T00:50:28;19.10;99.90
14093;DHT22;7123;49.468;10.992;2023-05-07T00:52:55;19.10;99.90
14093;DHT22;7123;49.468;10.992;2023-05-07T00:55:23;19.10;99.90
14093;DHT22;7123;49.468;10.992;2023-05-07T00:57:50;19.10;99.90
14093;DHT22;7123;49.468;10.992;2023-05-07T01:00:17;19.00;99.90
14093;DHT22;7123;49.468;10.992;2023-05-07T01:02:45;19.00;99.90
14093;DHT22;7123;49.468;10.992;2023-05-07T01:05:15;19.10;99.90
14093;DHT22;7123;49.468;10.992;2023-05-07T01:07:44;19.10;99.90
14093;DHT22;7123;49.468;10.992;2023-05-07T01:10:12;19.10;99.90
14093;DHT22;7123;49.468;10.992;2023-05-07T01:12:40;19.00;99.90
14093;DHT22;7123;49.468;10.992;2023-05-07T01:15:08;19.00;99.90
14093;DHT22;7123;49.468;10.992;2023-05-07T01:17:36;19.00;99.90
14093;DHT22;7123;49.468;10.992;2023-05-07T01:20:04;19.10;99.90
14093;DHT22;7123;49.468;10.992;2023-05-07T01:22:33;19.10;99.90
14093;DHT22;7123;49.468;10.992;2023-05-07T01:25:00;19.10;99.90
14093;DHT22;7123;49.468;10.992;2023-05-07T01:27:28;19.10;99.90
14093;DHT22;7123;49.468;10.992;2023-05-07T01:29:55;19.00;99.90
14093;DHT22;7123;49.468;10.992;2023-05-07T01:32:37;19.00;99.90
14093;DHT22;7123;49.468;10.992;2023-05-07T01:35:07;19.00;99.90
14093;DHT22;7123;49.468;10.992;2023-05-07T01:37:34;19.00;99.90
14093;DHT22;7123;49.468;10.992;2023-05-07T01:40:01;19.00;99.90
14093;DHT22;7123;49.468;10.992;2023-05-07T01:42:29;19.00;99.90
14093;DHT22;7123;49.468;10.992;2023-05-07T01:44:56;19.00;99.90
14093;DHT22;7123;49.468;10.992;2023-05-07T01:47:23;19.00;99.90
14093;DHT22;7123;49.468;10.992;2023-05-07T01:49:50;19.00;99.90
14093;DHT22;7123;49.468;10.992;2023-05-07T01:52:17;19.00;99.90
14093;DHT22;7123;49.468;10.992;2023-05-07T01:54:44;19.00;99.90
14093;DHT22;7123;49.468;10.992;2023-05-07T01:57:10;18.90;99.90
14093;DHT22;7123;49.468;10.992;2023-05-07T01:59:37;18.90;99.90
14093;DHT22;7123;49.468;10.992;2023-05-07T02:02:04;18.90;99.90
14093;DHT22;7123;49.468;10.992;2023-05-07T02:04:30;18.90;99.90
14093;DHT22;7123;49.468;10.992;2023-05-07T02:06:57;18.80;99.90
14093;DHT22;7123;49.468;10.992;2023-05-07T02:09:24;18.90;99.90
14093;DHT22;7123;49.468;10.992;2023-05-07T02:11:50;18.80;99.90
14093;DHT22;7123;49.468;10.992;2023-05-07T02:14:17;18.80;99.90
14093;DHT22;7123;49.468;10.992;2023-05-07T02:16:44;18.80;99.90
14093;DHT22;7123;49.468;10.992;2023-05-07T02:19:10;18.80;99.90
14093;DHT22;7123;49.468;10.992;2023-05-07T02:21:37;18.80;99.90
14093;DHT22;7123;49.468;10.992;2023-05-07T02:24:04;18.80;99.90
14093;DHT22;7123;49.468;10.992;2023-05-07T02:26:31;18.70;99.90
14093;DHT22;7123;49.468;10.992;2023-05-07T02:28:58;18.70;99.90
14093;DHT22;7123;49.468;10.992;2023-05-07T02:31:24;18.70;99.90
14093;DHT22;7123;49.468;10.992;2023-05-07T02:33:51;18.60;99.90
14093;DHT22;7123;49.468;10.992;2023-05-07T02:36:18;18.60;99.90
14093;DHT22;7123;49.468;10.992;2023-05-07T02:38:45;18.60;99.90
14093;DHT22;7123;49.468;10.992;2023-05-07T02:41:12;18.50;99.90
14093;DHT22;7123;49.468;10.992;2023-05-07T02:43:39;18.50;99.90
14093;DHT22;7123;49.468;10.992;2023-05-07T02:46:08;18.60;99.90
14093;DHT22;7123;49.468;10.992;2023-05-07T02:48:35;18.50;99.90
14093;DHT22;7123;49.468;10.992;2023-05-07T02:51:02;18.50;99.90
14093;DHT22;7123;49.468;10.992;2023-05-07T02:53:29;18.50;99.90
14093;DHT22;7123;49.468;10.992;2023-05-07T02:55:57;18.50;99.90
14093;DHT22;7123;49.468;10.992;2023-05-07T02:58:24;18.50;99.90
14093;DHT22;7123;49.468;10.992;2023-05-07T03:00:52;18.50;99.90
14093;DHT22;7123;49.468;10.992;2023-05-07T03:03:18;18.50;99.90
14093;DHT22;7123;49.468;10.992;2023-05-07T03:05:45;18.40;99.90
14093;DHT22;7123;49.468;10.992;2023-05-07T03:08:12;18.40;99.90
14093;DHT22;7123;49.468;10.992;2023-05-07T03:10:39;18.40;99.90
14093;DHT22;7123;49.468;10.992;2023-05-07T03:13:05;18.40;99.90
14093;DHT22;7123;49.468;10.992;2023-05-07T03:15:32;18.40;99.90
14093;DHT22;7123;49.468;10.992;2023-05-07T03:17:59;18.40;99.90
14093;DHT22;7123;49.468;10.992;2023-05-07T03:20:26;18.30;99.90
14093;DHT22;7123;49.468;10.992;2023-05-07T03:22:52;18.30;99.90
14093;DHT22;7123;49.468;10.992;2023-05-07T03:25:19;18.30;99.90
14093;DHT22;7123;49.468;10.992;2023-05-07T03:27:46;18.30;99.90
14093;DHT22;7123;49.468;10.992;2023-05-07T03:30:12;18.40;99.90
14093;DHT22;7123;49.468;10.992;2023-05-07T03:32:39;18.30;99.90
14093;DHT22;7123;49.468;10.992;2023-05-07T03:35:06;18.20;99.90
14093;DHT22;7123;49.468;10.992;2023-05-07T03:37:34;18.20;99.90
14093;DHT22;7123;49.468;10.992;2023-05-07T03:40:00;18.20;99.90
14093;DHT22;7123;49.468;10.992;2023-05-07T03:42:28;18.20;99.90
14093;DHT22;7123;49.468;10.992;2023-05-07T03:44:55;18.10;99.90
14093;DHT22;7123;49.468;10.992;2023-05-07T03:47:22;18.10;99.90
14093;DHT22;7123;49.468;10.992;2023-05-07T03:49:49;18.10;99.90
14093;DHT22;7123;49.468;10.992;2023-05-07T03:52:16;18.00;99.90
14093;DHT22;7123;49.468;10.992;2023-05-07T03:54:48;18.00;99.90
14093;DHT22;7123;49.468;10.992;2023-05-07T03:57:15;18.00;99.90
14093;DHT22;7123;49.468;10.992;2023-05-07T03:59:42;17.90;99.90
14093;DHT22;7123;49.468;10.992;2023-05-07T04:02:08;17.90;99.90
14093;DHT22;7123;49.468;10.992;2023-05-07T04:04:35;18.00;99.90
14093;DHT22;7123;49.468;10.992;2023-05-07T04:07:02;18.00;99.90
14093;DHT22;7123;49.468;10.992;2023-05-07T04:09:29;18.00;99.90
14093;DHT22;7123;49.468;10.992;2023-05-07T04:11:56;18.00;99.90
14093;DHT22;7123;49.468;10.992;2023-05-07T04:14:22;18.00;99.90
14093;DHT22;7123;49.468;10.992;2023-05-07T04:16:49;18.00;99.90
14093;DHT22;7123;49.468;10.992;2023-05-07T04:19:16;18.00;99.90
14093;DHT22;7123;49.468;10.992;2023-05-07T04:21:43;18.00;99.90
14093;DHT22;7123;49.468;10.992;2023-05-07T04:24:11;18.00;99.90
14093;DHT22;7123;49.468;10.992;2023-05-07T04:26:37;18.00;99.90
14093;DHT22;7123;49.468;10.992;2023-05-07T04:29:04;18.00;99.90
14093;DHT22;7123;49.468;10.992;2023-05-07T04:31:32;18.00;99.90
14093;DHT22;7123;49.468;10.992;2023-05-07T04:33:59;18.00;99.90
14093;DHT22;7123;49.468;10.992;2023-05-07T04:36:26;18.00;99.90
14093;DHT22;7123;49.468;10.992;2023-05-07T04:38:54;18.00;99.90
14093;DHT22;7123;49.468;10.992;2023-05-07T04:41:20;18.00;99.90
14093;DHT22;7123;49.468;10.992;2023-05-07T04:43:47;18.00;99.90
14093;DHT22;7123;49.468;10.992;2023-05-07T04:46:14;18.00;99.90
14093;DHT22;7123;49.468;10.992;2023-05-07T04:48:41;17.90;99.90
14093;DHT22;7123;49.468;10.992;2023-05-07T04:51:07;18.00;99.90
14093;DHT22;7123;49.468;10.992;2023-05-07T04:53:34;17.90;99.90
14093;DHT22;7123;49.468;10.992;2023-05-07T04:56:01;17.90;99.90
14093;DHT22;7123;49.468;10.992;2023-05-07T04:58:27;17.80;99.90
14093;DHT22;7123;49.468;10.992;2023-05-07T05:00:58;17.80;99.90
14093;DHT22;7123;49.468;10.992;2023-05-07T05:03:25;17.90;99.90
14093;DHT22;7123;49.468;10.992;2023-05-07T05:05:52;17.80;99.90
14093;DHT22;7123;49.468;10.992;2023-05-07T05:08:19;17.80;99.90
14093;DHT22;7123;49.468;10.992;2023-05-07T05:10:46;17.80;99.90
14093;DHT22;7123;49.468;10.992;2023-05-07T05:13:15;17.80;99.90
14093;DHT22;7123;49.468;10.992;2023-05-07T05:15:41;17.70;99.90
14093;DHT22;7123;49.468;10.992;2023-05-07T05:18:08;17.70;99.90
14093;DHT22;7123;49.468;10.992;2023-05-07T05:20:35;17.70;99.90
14093;DHT22;7123;49.468;10.992;2023-05-07T05:23:01;17.80;99.90
14093;DHT22;7123;49.468;10.992;2023-05-07T05:25:28;17.70;99.90
14093;DHT22;7123;49.468;10.992;2023-05-07T05:27:55;17.80;99.90
14093;DHT22;7123;49.468;10.992;2023-05-07T05:30:21;17.80;99.90
14093;DHT22;7123;49.468;10.992;2023-05-07T05:32:48;17.80;99.90
14093;DHT22;7123;49.468;10.992;2023-05-07T05:35:15;17.80;99.90
14093;DHT22;7123;49.468;10.992;2023-05-07T05:37:42;17.70;99.90
14093;DHT22;7123;49.468;10.992;2023-05-07T05:40:09;17.70;99.90
14093;DHT22;7123;49.468;10.992;2023-05-07T05:42:36;17.70;99.90
14093;DHT22;7123;49.468;10.992;2023-05-07T05:45:03;17.70;99.90
14093;DHT22;7123;49.468;10.992;2023-05-07T05:47:29;17.70;99.90
14093;DHT22;7123;49.468;10.992;2023-05-07T05:49:56;17.70;99.90
14093;DHT22;7123;49.468;10.992;2023-05-07T05:52:23;17.70;99.90
14093;DHT22;7123;49.468;10.992;2023-05-07T05:54:53;17.70;99.90
14093;DHT22;7123;49.468;10.992;2023-05-07T05:57:20;17.70;99.90
14093;DHT22;7123;49.468;10.992;2023-05-07T05:59:47;17.70;99.90
14093;DHT22;7123;49.468;10.992;2023-05-07T06:02:13;17.70;99.90
14093;DHT22;7123;49.468;10.992;2023-05-07T06:04:40;17.70;99.90
14093;DHT22;7123;49.468;10.992;2023-05-07T06:07:09;17.70;99.90
14093;DHT22;7123;49.468;10.992;2023-05-07T06:09:36;17.70;99.90
14093;DHT22;7123;49.468;10.992;2023-05-07T06:12:02;17.70;99.90
14093;DHT22;7123;49.468;10.992;2023-05-07T06:14:29;17.80;99.90
14093;DHT22;7123;49.468;10.992;2023-05-07T06:16:57;17.80;99.90
14093;DHT22;7123;49.468;10.992;2023-05-07T06:19:23;17.80;99.90
14093;DHT22;7123;49.468;10.992;2023-05-07T06:21:50;17.80;99.90
14093;DHT22;7123;49.468;10.992;2023-05-07T06:24:17;17.80;99.90
14093;DHT22;7123;49.468;10.992;2023-05-07T06:26:43;17.80;99.90
14093;DHT22;7123;49.468;10.992;2023-05-07T06:29:10;17.90;99.90
14093;DHT22;7123;49.468;10.992;2023-05-07T06:31:37;17.90;99.90
14093;DHT22;7123;49.468;10.992;2023-05-07T06:34:04;17.90;99.90
14093;DHT22;7123;49.468;10.992;2023-05-07T06:36:31;17.90;99.90
14093;DHT22;7123;49.468;10.992;2023-05-07T06:38:58;17.90;99.90
14093;DHT22;7123;49.468;10.992;2023-05-07T06:41:24;17.90;99.90
14093;DHT22;7123;49.468;10.992;2023-05-07T06:43:52;17.90;99.90
14093;DHT22;7123;49.468;10.992;2023-05-07T06:46:18;17.90;99.90
14093;DHT22;7123;49.468;10.992;2023-05-07T06:48:45;18.00;99.90
14093;DHT22;7123;49.468;10.992;2023-05-07T06:51:12;18.00;99.90
14093;DHT22;7123;49.468;10.992;2023-05-07T06:53:38;18.10;99.90
14093;DHT22;7123;49.468;10.992;2023-05-07T06:56:05;18.10;99.90
14093;DHT22;7123;49.468;10.992;2023-05-07T06:58:32;18.20;99.90
14093;DHT22;7123;49.468;10.992;2023-05-07T07:00:59;18.20;99.90
14093;DHT22;7123;49.468;10.992;2023-05-07T07:03:26;18.20;99.90
14093;DHT22;7123;49.468;10.992;2023-05-07T07:05:53;18.20;99.90
14093;DHT22;7123;49.468;10.992;2023-05-07T07:08:22;18.10;99.90
14093;DHT22;7123;49.468;10.992;2023-05-07T07:10:48;18.10;99.90
14093;DHT22;7123;49.468;10.992;2023-05-07T07:13:15;18.20;99.90
14093;DHT22;7123;49.468;10.992;2023-05-07T07:15:43;18.20;99.90
14093;DHT22;7123;49.468;10.992;2023-05-07T07:18:10;18.20;99.90
14093;DHT22;7123;49.468;10.992;2023-05-07T07:20:37;18.30;99.90
14093;DHT22;7123;49.468;10.992;2023-05-07T07:23:03;18.30;99.90
14093;DHT22;7123;49.468;10.992;2023-05-07T07:25:30;18.40;99.90
14093;DHT22;7123;49.468;10.992;2023-05-07T07:27:57;18.40;99.90
14093;DHT22;7123;49.468;10.992;2023-05-07T07:30:26;18.40;99.90
14093;DHT22;7123;49.468;10.992;2023-05-07T07:32:53;18.40;99.90
14093;DHT22;7123;49.468;10.992;2023-05-07T07:35:20;18.40;99.90
14093;DHT22;7123;49.468;10.992;2023-05-07T07:37:48;18.40;99.90
14093;DHT22;7123;49.468;10.992;2023-05-07T07:40:16;18.40;99.90
14093;DHT22;7123;49.468;10.992;2023-05-07T07:42:42;18.30;99.90
14093;DHT22;7123;49.468;10.992;2023-05-07T07:45:10;18.30;99.90
14093;DHT22;7123;49.468;10.992;2023-05-07T07:47:36;18.40;99.90
14093;DHT22;7123;49.468;10.992;2023-05-07T07:50:04;18.40;99.90
14093;DHT22;7123;49.468;10.992;2023-05-07T07:52:30;18.40;99.90
14093;DHT22;7123;49.468;10.992;2023-05-07T07:54:57;18.40;99.90
14093;DHT22;7123;49.468;10.992;2023-05-07T07:57:24;18.50;99.90
14093;DHT22;7123;49.468;10.992;2023-05-07T07:59:50;18.50;99.90
14093;DHT22;7123;49.468;10.992;2023-05-07T08:02:17;18.50;99.90
14093;DHT22;7123;49.468;10.992;2023-05-07T08:04:45;18.50;99.90
14093;DHT22;7123;49.468;10.992;2023-05-07T08:07:13;18.60;99.90
14093;DHT22;7123;49.468;10.992;2023-05-07T08:09:40;18.60;99.90
14093;DHT22;7123;49.468;10.992;2023-05-07T08:12:07;18.60;99.90
14093;DHT22;7123;49.468;10.992;2023-05-07T08:14:34;18.60;99.90
14093;DHT22;7123;49.468;10.992;2023-05-07T08:17:02;18.70;99.90
14093;DHT22;7123;49.468;10.992;2023-05-07T08:19:29;18.70;99.90
14093;DHT22;7123;49.468;10.992;2023-05-07T08:21:56;18.70;99.90
14093;DHT22;7123;49.468;10.992;2023-05-07T08:24:23;18.80;99.90
14093;DHT22;7123;49.468;10.992;2023-05-07T08:26:49;18.80;99.90
14093;DHT22;7123;49.468;10.992;2023-05-07T08:29:16;18.80;99.90
14093;DHT22;7123;49.468;10.992;2023-05-07T08:31:43;18.90;99.90
14093;DHT22;7123;49.468;10.992;2023-05-07T08:34:09;19.00;99.90
14093;DHT22;7123;49.468;10.992;2023-05-07T08:36:36;19.00;99.90
14093;DHT22;7123;49.468;10.992;2023-05-07T08:39:03;19.00;99.90
14093;DHT22;7123;49.468;10.992;2023-05-07T08:41:30;19.00;99.90
14093;DHT22;7123;49.468;10.992;2023-05-07T08:43:58;19.10;99.90
14093;DHT22;7123;49.468;10.992;2023-05-07T08:46:31;19.20;99.90
14093;DHT22;7123;49.468;10.992;2023-05-07T08:48:58;19.30;99.90
14093;DHT22;7123;49.468;10.992;2023-05-07T08:51:25;19.40;99.90
14093;DHT22;7123;49.468;10.992;2023-05-07T08:53:52;19.50;99.90
14093;DHT22;7123;49.468;10.992;2023-05-07T08:56:18;19.50;99.90
14093;DHT22;7123;49.468;10.992;2023-05-07T08:58:48;19.60;99.90
14093;DHT22;7123;49.468;10.992;2023-05-07T09:01:16;19.60;99.90
14093;DHT22;7123;49.468;10.992;2023-05-07T09:03:45;19.50;99.90
14093;DHT22;7123;49.468;10.992;2023-05-07T09:06:12;19.60;99.90
14093;DHT22;7123;49.468;10.992;2023-05-07T09:08:38;19.60;99.90
14093;DHT22;7123;49.468;10.992;2023-05-07T09:11:05;19.60;99.90
14093;DHT22;7123;49.468;10.992;2023-05-07T09:13:32;19.60;99.90
14093;DHT22;7123;49.468;10.992;2023-05-07T09:16:09;19.60;99.90
14093;DHT22;7123;49.468;10.992;2023-05-07T09:18:43;19.60;99.90
14093;DHT22;7123;49.468;10.992;2023-05-07T09:21:11;19.60;99.90
14093;DHT22;7123;49.468;10.992;2023-05-07T09:23:38;19.70;99.90
14093;DHT22;7123;49.468;10.992;2023-05-07T09:26:06;19.70;99.90
14093;DHT22;7123;49.468;10.992;2023-05-07T09:28:39;19.70;99.90
14093;DHT22;7123;49.468;10.992;2023-05-07T09:31:07;19.70;99.90
14093;DHT22;7123;49.468;10.992;2023-05-07T09:33:34;19.80;99.90
14093;DHT22;7123;49.468;10.992;2023-05-07T09:36:06;19.80;99.90
14093;DHT22;7123;49.468;10.992;2023-05-07T09:38:34;19.80;99.90
14093;DHT22;7123;49.468;10.992;2023-05-07T09:41:05;19.90;99.90
14093;DHT22;7123;49.468;10.992;2023-05-07T09:43:34;19.90;99.90
14093;DHT22;7123;49.468;10.992;2023-05-07T09:46:05;20.00;99.90
14093;DHT22;7123;49.468;10.992;2023-05-07T09:48:36;19.90;99.90
14093;DHT22;7123;49.468;10.992;2023-05-07T09:53:45;19.90;99.90
14093;DHT22;7123;49.468;10.992;2023-05-07T09:56:14;19.90;99.90
14093;DHT22;7123;49.468;10.992;2023-05-07T09:58:42;19.90;99.90
14093;DHT22;7123;49.468;10.992;2023-05-07T10:01:10;19.90;99.90
14093;DHT22;7123;49.468;10.992;2023-05-07T10:03:41;20.00;99.90
14093;DHT22;7123;49.468;10.992;2023-05-07T10:06:10;20.10;99.90
14093;DHT22;7123;49.468;10.992;2023-05-07T10:08:37;20.10;99.90
14093;DHT22;7123;49.468;10.992;2023-05-07T10:11:04;20.20;99.90
14093;DHT22;7123;49.468;10.992;2023-05-07T10:13:35;20.30;99.90
14093;DHT22;7123;49.468;10.992;2023-05-07T10:16:04;20.30;99.90
14093;DHT22;7123;49.468;10.992;2023-05-07T10:18:32;20.40;99.90
14093;DHT22;7123;49.468;10.992;2023-05-07T10:21:20;20.60;99.90
14093;DHT22;7123;49.468;10.992;2023-05-07T10:23:59;20.60;99.90
14093;DHT22;7123;49.468;10.992;2023-05-07T10:26:28;20.70;99.90
14093;DHT22;7123;49.468;10.992;2023-05-07T10:29:02;20.70;99.90
14093;DHT22;7123;49.468;10.992;2023-05-07T10:31:51;20.70;99.90
14093;DHT22;7123;49.468;10.992;2023-05-07T10:34:26;20.70;99.90
14093;DHT22;7123;49.468;10.992;2023-05-07T10:36:55;20.80;99.90
14093;DHT22;7123;49.468;10.992;2023-05-07T10:39:22;20.80;99.90
14093;DHT22;7123;49.468;10.992;2023-05-07T10:41:49;20.70;99.90
14093;DHT22;7123;49.468;10.992;2023-05-07T10:44:35;20.70;99.90
14093;DHT22;7123;49.468;10.992;2023-05-07T10:47:11;20.80;99.90
14093;DHT22;7123;49.468;10.992;2023-05-07T10:52:17;20.90;99.90
14093;DHT22;7123;49.468;10.992;2023-05-07T10:54:44;20.90;99.90
14093;DHT22;7123;49.468;10.992;2023-05-07T10:59:57;21.00;99.90
14093;DHT22;7123;49.468;10.992;2023-05-07T11:05:32;21.00;99.90
14093;DHT22;7123;49.468;10.992;2023-05-07T11:08:04;21.10;99.90
14093;DHT22;7123;49.468;10.992;2023-05-07T11:10:51;21.10;99.90
14093;DHT22;7123;49.468;10.992;2023-05-07T11:13:19;21.30;99.90
14093;DHT22;7123;49.468;10.992;2023-05-07T11:16:20;21.20;99.90
14093;DHT22;7123;49.468;10.992;2023-05-07T11:18:56;21.20;99.90
14093;DHT22;7123;49.468;10.992;2023-05-07T11:21:36;21.20;99.90
14093;DHT22;7123;49.468;10.992;2023-05-07T11:24:04;21.10;99.90
14093;DHT22;7123;49.468;10.992;2023-05-07T11:26:48;21.10;99.90
14093;DHT22;7123;49.468;10.992;2023-05-07T11:29:17;21.10;99.90
14093;DHT22;7123;49.468;10.992;2023-05-07T11:31:52;21.10;99.90
14093;DHT22;7123;49.468;10.992;2023-05-07T11:34:24;21.20;99.90
14093;DHT22;7123;49.468;10.992;2023-05-07T11:36:52;21.20;99.90
14093;DHT22;7123;49.468;10.992;2023-05-07T11:39:35;21.30;99.90
14093;DHT22;7123;49.468;10.992;2023-05-07T11:42:02;21.30;99.90
14093;DHT22;7123;49.468;10.992;2023-05-07T11:44:45;21.30;99.90
14093;DHT22;7123;49.468;10.992;2023-05-07T11:47:22;21.40;99.90
14093;DHT22;7123;49.468;10.992;2023-05-07T11:49:50;21.40;99.90
14093;DHT22;7123;49.468;10.992;2023-05-07T11:52:18;21.50;99.90
14093;DHT22;7123;49.468;10.992;2023-05-07T11:55:04;21.50;99.90
14093;DHT22;7123;49.468;10.992;2023-05-07T11:57:33;21.50;99.90
14093;DHT22;7123;49.468;10.992;2023-05-07T12:00:01;21.50;99.90
14093;DHT22;7123;49.468;10.992;2023-05-07T12:02:30;21.50;99.90
14093;DHT22;7123;49.468;10.992;2023-05-07T12:05:00;21.40;99.90
14093;DHT22;7123;49.468;10.992;2023-05-07T12:07:27;21.30;99.90
14093;DHT22;7123;49.468;10.992;2023-05-07T12:09:54;21.30;99.90
14093;DHT22;7123;49.468;10.992;2023-05-07T12:12:21;21.30;99.90
14093;DHT22;7123;49.468;10.992;2023-05-07T12:14:48;21.30;99.90
14093;DHT22;7123;49.468;10.992;2023-05-07T12:17:16;21.30;99.90
14093;DHT22;7123;49.468;10.992;2023-05-07T12:19:44;21.40;99.90
14093;DHT22;7123;49.468;10.992;2023-05-07T12:22:12;21.40;99.90
14093;DHT22;7123;49.468;10.992;2023-05-07T12:24:57;21.50;99.90
14093;DHT22;7123;49.468;10.992;2023-05-07T12:27:25;21.50;99.90
14093;DHT22;7123;49.468;10.992;2023-05-07T12:29:52;21.70;99.90
14093;DHT22;7123;49.468;10.992;2023-05-07T12:32:20;21.80;99.90
14093;DHT22;7123;49.468;10.992;2023-05-07T12:34:51;21.90;99.90
14093;DHT22;7123;49.468;10.992;2023-05-07T12:37:23;21.90;99.90
14093;DHT22;7123;49.468;10.992;2023-05-07T12:40:07;21.90;99.90
14093;DHT22;7123;49.468;10.992;2023-05-07T12:42:38;21.90;99.90
14093;DHT22;7123;49.468;10.992;2023-05-07T12:45:09;21.80;99.90
14093;DHT22;7123;49.468;10.992;2023-05-07T12:47:37;21.80;99.90
14093;DHT22;7123;49.468;10.992;2023-05-07T12:50:07;21.70;99.90
14093;DHT22;7123;49.468;10.992;2023-05-07T12:52:34;21.60;99.90
14093;DHT22;7123;49.468;10.992;2023-05-07T12:55:08;21.50;99.90
14093;DHT22;7123;49.468;10.992;2023-05-07T12:57:47;21.50;99.90
14093;DHT22;7123;49.468;10.992;2023-05-07T13:00:15;21.50;99.90
14093;DHT22;7123;49.468;10.992;2023-05-07T13:02:43;21.50;99.90
14093;DHT22;7123;49.468;10.992;2023-05-07T13:05:11;21.40;99.90
14093;DHT22;7123;49.468;10.992;2023-05-07T13:07:38;21.50;99.90
14093;DHT22;7123;49.468;10.992;2023-05-07T13:10:06;21.50;99.90
14093;DHT22;7123;49.468;10.992;2023-05-07T13:12:33;21.50;99.90
14093;DHT22;7123;49.468;10.992;2023-05-07T13:14:59;21.60;99.90
14093;DHT22;7123;49.468;10.992;2023-05-07T13:17:26;21.80;99.90
14093;DHT22;7123;49.468;10.992;2023-05-07T13:19:53;21.80;99.90
14093;DHT22;7123;49.468;10.992;2023-05-07T13:22:20;21.90;99.90
14093;DHT22;7123;49.468;10.992;2023-05-07T13:24:46;21.90;99.90
14093;DHT22;7123;49.468;10.992;2023-05-07T13:27:13;21.90;99.90
14093;DHT22;7123;49.468;10.992;2023-05-07T13:29:40;21.90;99.90
14093;DHT22;7123;49.468;10.992;2023-05-07T13:32:06;21.90;99.90
14093;DHT22;7123;49.468;10.992;2023-05-07T13:34:33;22.00;99.90
14093;DHT22;7123;49.468;10.992;2023-05-07T13:37:00;22.10;99.90
14093;DHT22;7123;49.468;10.992;2023-05-07T13:39:27;22.10;99.90
14093;DHT22;7123;49.468;10.992;2023-05-07T13:41:54;22.10;99.90
14093;DHT22;7123;49.468;10.992;2023-05-07T13:44:20;22.20;99.90
14093;DHT22;7123;49.468;10.992;2023-05-07T13:46:47;22.20;99.90
14093;DHT22;7123;49.468;10.992;2023-05-07T13:49:14;22.20;99.90
14093;DHT22;7123;49.468;10.992;2023-05-07T13:51:40;22.20;99.90
14093;DHT22;7123;49.468;10.992;2023-05-07T13:54:07;22.30;99.90
14093;DHT22;7123;49.468;10.992;2023-05-07T13:56:34;22.40;99.90
14093;DHT22;7123;49.468;10.992;2023-05-07T13:59:01;22.40;99.90
14093;DHT22;7123;49.468;10.992;2023-05-07T14:01:28;22.40;99.90
14093;DHT22;7123;49.468;10.992;2023-05-07T14:03:56;22.50;99.90
14093;DHT22;7123;49.468;10.992;2023-05-07T14:06:24;22.50;99.90
14093;DHT22;7123;49.468;10.992;2023-05-07T14:08:51;22.60;99.90
14093;DHT22;7123;49.468;10.992;2023-05-07T14:11:18;22.80;99.90
14093;DHT22;7123;49.468;10.992;2023-05-07T14:13:45;22.80;99.90
14093;DHT22;7123;49.468;10.992;2023-05-07T14:16:11;22.70;99.90
14093;DHT22;7123;49.468;10.992;2023-05-07T14:18:38;22.50;99.90
14093;DHT22;7123;49.468;10.992;2023-05-07T14:21:05;22.50;99.90
14093;DHT22;7123;49.468;10.992;2023-05-07T14:23:36;22.50;99.90
14093;DHT22;7123;49.468;10.992;2023-05-07T14:26:03;22.40;99.90
14093;DHT22;7123;49.468;10.992;2023-05-07T14:28:29;22.40;99.90
14093;DHT22;7123;49.468;10.992;2023-05-07T14:30:56;22.40;99.90
14093;DHT22;7123;49.468;10.992;2023-05-07T14:33:23;22.40;99.90
14093;DHT22;7123;49.468;10.992;2023-05-07T14:35:49;22.60;99.90
14093;DHT22;7123;49.468;10.992;2023-05-07T14:38:16;22.60;99.90
14093;DHT22;7123;49.468;10.992;2023-05-07T14:40:43;22.50;99.90
14093;DHT22;7123;49.468;10.992;2023-05-07T14:43:10;22.40;99.90
14093;DHT22;7123;49.468;10.992;2023-05-07T14:45:36;22.50;99.90
14093;DHT22;7123;49.468;10.992;2023-05-07T14:48:03;22.40;99.90
14093;DHT22;7123;49.468;10.992;2023-05-07T14:50:32;22.40;99.90
14093;DHT22;7123;49.468;10.992;2023-05-07T14:52:59;22.30;99.90
14093;DHT22;7123;49.468;10.992;2023-05-07T14:55:26;22.10;99.90
14093;DHT22;7123;49.468;10.992;2023-05-07T14:57:52;22.10;99.90
14093;DHT22;7123;49.468;10.992;2023-05-07T15:00:19;22.00;99.90
14093;DHT22;7123;49.468;10.992;2023-05-07T15:02:46;22.00;99.90
14093;DHT22;7123;49.468;10.992;2023-05-07T15:05:13;22.00;99.90
14093;DHT22;7123;49.468;10.992;2023-05-07T15:07:41;22.00;99.90
14093;DHT22;7123;49.468;10.992;2023-05-07T15:10:08;22.00;99.90
14093;DHT22;7123;49.468;10.992;2023-05-07T15:12:34;21.90;99.90
14093;DHT22;7123;49.468;10.992;2023-05-07T15:15:01;21.90;99.90
14093;DHT22;7123;49.468;10.992;2023-05-07T15:17:28;21.90;99.90
14093;DHT22;7123;49.468;10.992;2023-05-07T15:19:55;21.90;99.90
14093;DHT22;7123;49.468;10.992;2023-05-07T15:22:21;21.90;99.90
14093;DHT22;7123;49.468;10.992;2023-05-07T15:24:48;21.90;99.90
14093;DHT22;7123;49.468;10.992;2023-05-07T15:27:15;21.90;99.90
14093;DHT22;7123;49.468;10.992;2023-05-07T15:29:43;21.90;99.90
14093;DHT22;7123;49.468;10.992;2023-05-07T15:32:09;21.90;99.90
14093;DHT22;7123;49.468;10.992;2023-05-07T15:34:37;21.90;99.90
14093;DHT22;7123;49.468;10.992;2023-05-07T15:37:03;21.90;99.90
14093;DHT22;7123;49.468;10.992;2023-05-07T15:39:30;22.00;99.90
14093;DHT22;7123;49.468;10.992;2023-05-07T15:41:57;21.90;99.90
14093;DHT22;7123;49.468;10.992;2023-05-07T15:44:24;21.90;99.90
14093;DHT22;7123;49.468;10.992;2023-05-07T15:46:55;21.80;99.90